Detall de PIREP

Printer-friendly versionPDF version

[2015/05/09 16:52:00]
Flight IATA:CT1061
Pilot Number:026
Company ICAO:CAT
Aircraft Type:DC85/A
PAX:132
Aircraft Registration:PAX
Departing Airport: LEAL
Destination Airport: LICJ
Alternate Airport:LMML
Online: VATSIM
Route:MITOS/N0330F340 UN851 MHN UM603 MORSS/N0330F350 UM603 ARSIK UM731 TEKSA UM732 CAR UM871 KAPIL
Flight Level:F350
No Slew and time accel
No pause
Crash detect
Detect pilot in Cockpit between each 30 and 45 minutes
16:52 Zero fuel Weight: 178684 Lbs, Fuel Weight: 39010 Lbs
16:52 VATSIM:LEAL 091630Z 07008KT 030V110 9999 SCT008 21/17 Q1023 NOSIG
16:52 VATSIM:LICJ 091620Z 28004KT 9999 FEW023 20/16 Q1017
16:52 ALMOGAVERS ROUTE / LEG2
16:58 Parking Brakes off
17:06 Take-off
17:06 Take off Weight: 216383 Lbs
17:06 Wind: 045º @ 008 Knots Heading: 097º
17:06 POS N38º 16´ 52´´ W000º 33´ 07´´
17:06 Flaps:1 at 184 Knots
17:06 Gear Up: 214 Knots
17:07 Flaps:0 at 249 Knots
17:21 Wind:075º@014 Knots Heading: 074º Ground Speed: 387 Knots Altitude 30479 ft
17:36 Wind:229º@024 Knots Heading: 076º Ground Speed: 510 Knots Altitude 34317 ft
17:47 TOC
17:47 Fuel Weight: 27626 Lb
17:49 TOD
17:49 Fuel Weight: 27229 Lb
17:50 TOC
17:50 Fuel Weight: 27148 Lb
17:51 Wind:304º@020 Knots Heading: 101º Ground Speed: 482 Knots Altitude 35324 ft
18:06 Wind:316º@044 Knots Heading: 096º Ground Speed: 502 Knots Altitude 35137 ft
18:19 TOD
18:19 Fuel Weight: 21157 Lb
18:21 Wind:289º@044 Knots Heading: 106º Ground Speed: 534 Knots Altitude 32837 ft
18:36 Wind:312º@011 Knots Heading: 104º Ground Speed: 324 Knots Altitude 11476 ft
18:47 Flaps:1 at 208 Knots
18:48 Gear Down: 197 Knots
18:50 Flaps:2 at 160 Knots
18:50 Flaps:3 at 166 Knots
18:50 Flaps:4 at 163 Knots
18:51 Wind:298º@004 Knots Heading: 247º Ground Speed: 159 Knots Altitude 295 ft
18:51 TouchDown:Rate -472 ft/min Speed: 141 Knots
18:51 VATSIM:LICJ 091820Z 31004KT 290V350 9999 FEW017 19/16 Q1018
18:51 Land
18:51 Wind:295º@004 Knots
18:51 Heading: 247º
18:51 Flight Duration: 01:45
18:51 Landing Weight: 195912 Lbs
18:51 POS N38º 10´ 37´´ E013º 05´ 40´´
18:56 Parking brakes on
18:56 Block to Block Duration: 01:58
18:56 Final Fuel: 16754 Lbls
18:56 Spent Fuel: 22255 Lbls
18:56 Flight Length: 616 NM
18:56 TOD Land Length: 185 NM

Exportar CSV

Powered by Drupal - Modified by Danger4k